Time;durP1;ratioP1;P1;durP2;ratioP2;P2;SDS_P1;SDS_P2;PMS_P1;PMS_P2;Temp;Humidity;BMP_temperature;BMP_pressure;BME280_temperature;BME280_humidity;BME280_pressure;Samples;Min_cycle;Max_cycle;Signal;HPM_P1;HPM_P2
2022/07/10 00:07:14;;;;;;;1.10;0.70;;;;;;;;;;20913572;28;20295;-87
2022/07/10 00:17:16;;;;;;;0.80;0.50;;;;;;;;;;20896722;28;20195;-84
2022/07/10 00:27:18;;;;;;;2.42;0.60;;;;;;;;;;20915633;28;20209;-83
2022/07/10 00:37:21;;;;;;;0.40;0.40;;;;;;;;;;20911276;28;20297;-83
2022/07/10 00:47:23;;;;;;;0.50;0.45;;;;;;;;;;20878431;28;20714;-87
2022/07/10 00:57:25;;;;;;;0.40;0.38;;;;;;;;;;20894999;28;20338;-87
2022/07/10 01:07:26;;;;;;;0.70;0.50;;;;;;;;;;20880983;28;20586;-87
2022/07/10 01:17:29;;;;;;;1.35;0.50;;;;;;;;;;20896888;28;20594;-85
2022/07/10 01:28:06;;;;;;;0.85;0.52;;;;;;;;;;20901853;28;20316;-87
2022/07/10 01:38:18;;;;;;;1.10;0.47;;;;;;;;;;20868838;22;20729;-72
2022/07/10 01:48:20;;;;;;;0.63;0.40;;;;;;;;;;21036670;28;20765;-73
2022/07/10 01:58:21;;;;;;;1.00;0.60;;;;;;;;;;21035627;28;20194;-72
2022/07/10 02:08:23;;;;;;;1.27;0.40;;;;;;;;;;21034535;28;20257;-72
2022/07/10 02:18:25;;;;;;;0.30;0.30;;;;;;;;;;21049748;28;20202;-72
2022/07/10 02:28:27;;;;;;;0.63;0.40;;;;;;;;;;21050165;28;20228;-72
2022/07/10 02:38:29;;;;;;;0.30;0.20;;;;;;;;;;21065406;28;20238;-73
2022/07/10 02:48:31;;;;;;;1.63;0.40;;;;;;;;;;21060391;22;20227;-74
2022/07/10 02:58:33;;;;;;;0.90;0.80;;;;;;;;;;21080087;28;20204;-74
2022/07/10 03:08:35;;;;;;;0.90;0.50;;;;;;;;;;21078063;28;20560;-74
2022/07/10 03:18:37;;;;;;;2.33;0.43;;;;;;;;;;21079275;28;20197;-74
2022/07/10 03:28:38;;;;;;;0.83;0.50;;;;;;;;;;21077546;28;20579;-74
2022/07/10 03:38:40;;;;;;;0.93;0.60;;;;;;;;;;21076428;28;20253;-74
2022/07/10 03:48:42;;;;;;;0.30;0.30;;;;;;;;;;21075266;28;20606;-74
2022/07/10 03:58:43;;;;;;;1.33;0.50;;;;;;;;;;21062447;28;20745;-74
2022/07/10 04:08:45;;;;;;;1.47;0.70;;;;;;;;;;21075072;28;20272;-74
2022/07/10 04:18:47;;;;;;;0.70;0.53;;;;;;;;;;21073632;28;20237;-74
2022/07/10 04:28:49;;;;;;;0.87;0.40;;;;;;;;;;21039262;28;20284;-74
2022/07/10 04:38:51;;;;;;;0.97;0.40;;;;;;;;;;21071291;28;20207;-75
2022/07/10 04:48:53;;;;;;;1.07;0.50;;;;;;;;;;21070374;28;20229;-75
2022/07/10 04:58:55;;;;;;;1.83;0.50;;;;;;;;;;21068669;28;20204;-75
2022/07/10 05:08:56;;;;;;;1.77;0.40;;;;;;;;;;21069631;28;20214;-75
2022/07/10 05:18:58;;;;;;;2.30;0.37;;;;;;;;;;21070502;28;20229;-75
2022/07/10 05:29:00;;;;;;;1.13;0.40;;;;;;;;;;21068277;28;20211;-75
2022/07/10 05:39:01;;;;;;;0.80;0.50;;;;;;;;;;21050818;28;20238;-75
2022/07/10 05:49:03;;;;;;;0.57;0.30;;;;;;;;;;21077053;28;20269;-75
2022/07/10 05:59:05;;;;;;;2.33;0.40;;;;;;;;;;21076630;28;20215;-75
2022/07/10 06:09:07;;;;;;;1.00;0.40;;;;;;;;;;21074545;28;20273;-76
2022/07/10 06:19:08;;;;;;;1.70;0.40;;;;;;;;;;21082588;28;20207;-75
2022/07/10 06:29:10;;;;;;;0.90;0.30;;;;;;;;;;21080370;28;20223;-76
2022/07/10 06:39:12;;;;;;;0.63;0.30;;;;;;;;;;21058989;28;20215;-73
2022/07/10 06:49:14;;;;;;;0.73;0.30;;;;;;;;;;21070277;28;20570;-72
2022/07/10 06:59:16;;;;;;;1.03;0.47;;;;;;;;;;21054238;28;20574;-72
2022/07/10 07:09:17;;;;;;;0.77;0.30;;;;;;;;;;21074302;28;20219;-72
2022/07/10 07:19:30;;;;;;;1.50;0.20;;;19.60;99.90;;;;;;21066671;28;20739;-71
2022/07/10 07:29:32;;;;;;;0.80;0.20;;;;;;;;;;21006413;28;20216;-72
2022/07/10 07:39:34;;;;;;;0.17;0.17;;;;;;;;;;21058682;28;20555;-70
2022/07/10 07:49:35;;;;;;;0.57;0.20;;;;;;;;;;21075138;28;20220;-71
2022/07/10 07:59:37;;;;;;;0.87;0.40;;;;;;;;;;21074944;28;20344;-71
2022/07/10 08:09:39;;;;;;;1.00;0.23;;;;;;;;;;21074601;28;20598;-74
2022/07/10 08:19:41;;;;;;;0.77;0.40;;;;;;;;;;21075112;28;20220;-73
2022/07/10 08:29:43;;;;;;;0.63;0.30;;;;;;;;;;21091207;28;20212;-73
2022/07/10 08:39:44;;;;;;;0.63;0.27;;;;;;;;;;21071194;28;20197;-75
2022/07/10 08:49:47;;;;;;;0.95;0.60;;;;;;;;;;20931641;22;20232;-67
2022/07/10 08:59:49;;;;;;;1.08;0.40;;;;;;;;;;20798867;28;20709;-67
2022/07/10 09:09:56;;;;;;;0.45;0.20;;;;;;;;;;20785572;28;20315;-67
2022/07/10 09:19:58;;;;;;;0.63;0.32;;;;;;;;;;20805048;28;20205;-67
2022/07/10 09:30:00;;;;;;;0.47;0.20;;;;;;;;;;20788128;28;20274;-67
2022/07/10 09:40:04;;;;;;;1.80;0.73;;;22.10;91.30;;;;;;20804219;28;20231;-67
2022/07/10 09:50:22;;;;;;;0.40;0.30;;;;;;;;;;20769872;28;20252;-67
2022/07/10 10:00:27;;;;;;;0.50;0.32;;;22.80;89.90;;;;;;20798348;28;20626;-68
2022/07/10 10:10:29;;;;;;;0.93;0.32;;;;;;;;;;20780011;28;20223;-68
2022/07/10 10:20:41;;;;;;;1.17;0.30;;;;;;;;;;20815566;28;20693;-68
2022/07/10 10:30:45;;;;;;;0.93;0.32;;;22.90;87.20;;;;;;20786318;28;20264;-67
2022/07/10 10:40:52;;;;;;;1.15;0.20;;;;;;;;;;20796623;28;20216;-67
2022/07/10 10:50:55;;;;;;;0.98;0.25;;;;;;;;;;20797422;28;20274;-67
2022/07/10 11:01:05;;;;;;;0.50;0.30;;;22.00;78.90;;;;;;20811398;28;20212;-67
2022/07/10 11:11:30;;;;;;;1.05;0.60;;;22.70;87.30;;;;;;20811650;28;20253;-66
2022/07/10 11:21:44;;;;;;;0.88;0.30;;;;;;;;;;20778914;28;20592;-70
2022/07/10 11:31:53;;;;;;;0.38;0.32;;;23.70;85.60;;;;;;20778629;28;20213;-68
2022/07/10 11:41:55;;;;;;;1.35;0.60;;;;;;;;;;20793632;28;20291;-67
2022/07/10 11:52:04;;;;;;;0.52;0.35;;;;;;;;;;20808819;28;20699;-67
2022/07/10 12:02:06;;;;;;;1.08;0.35;;;;;;;;;;20777475;28;20227;-67
2022/07/10 12:12:09;;;;;;;0.40;0.30;;;;;;;;;;20809395;28;20222;-67
2022/07/10 12:22:11;;;;;;;0.45;0.38;;;;;;;;;;20776534;28;20275;-67
2022/07/10 12:32:19;;;;;;;0.70;0.35;;;;;;;;;;20791946;28;20688;-63
2022/07/10 12:42:27;;;;;;;1.05;0.50;;;;;;;;;;20793787;28;20593;-62
2022/07/10 12:52:29;;;;;;;1.08;0.30;;;;;;;;;;20773699;28;20692;-63
2022/07/10 13:02:33;;;;;;;0.40;0.20;;;;;;;;;;20781929;28;20236;-63
2022/07/10 13:12:35;;;;;;;1.38;0.57;;;;;;;;;;20764842;28;20703;-63
2022/07/10 13:22:37;;;;;;;2.35;0.40;;;;;;;;;;20790162;28;20722;-63
2022/07/10 13:32:39;;;;;;;1.65;0.43;;;;;;;;;;20773882;28;20209;-63
2022/07/10 13:42:42;;;;;;;0.25;0.25;;;;;;;;;;20790589;28;20287;-63
2022/07/10 13:52:44;;;;;;;1.08;0.38;;;;;;;;;;20772833;28;20293;-63
2022/07/10 14:02:46;;;;;;;0.52;0.35;;;;;;;;;;20788407;28;20277;-63
2022/07/10 14:12:48;;;;;;;1.40;0.40;;;24.80;82.80;;;;;;20816073;28;20232;-63
2022/07/10 14:22:50;;;;;;;0.30;0.28;;;;;;;;;;20787066;28;20266;-63
2022/07/10 14:32:53;;;;;;;0.57;0.30;;;;;;;;;;20803006;28;20274;-63
2022/07/10 14:42:56;;;;;;;0.68;0.30;;;;;;;;;;20802056;28;20215;-63
2022/07/10 14:52:58;;;;;;;0.95;0.30;;;;;;;;;;21045641;23;20288;-73
2022/07/10 15:03:00;;;;;;;0.85;0.30;;;;;;;;;;21126499;28;20282;-72
2022/07/10 15:13:04;;;;;;;0.57;0.30;;;;;;;;;;21115912;28;20297;-72
2022/07/10 15:23:06;;;;;;;0.95;0.40;;;;;;;;;;21114318;28;20267;-72
2022/07/10 15:33:09;;;;;;;0.47;0.30;;;23.50;85.10;;;;;;21113219;28;20229;-72
2022/07/10 15:43:12;;;;;;;0.50;0.30;;;;;;;;;;21110034;28;20718;-71
2022/07/10 15:53:14;;;;;;;0.90;0.50;;;;;;;;;;21120793;28;20231;-72
2022/07/10 16:03:16;;;;;;;0.98;0.30;;;;;;;;;;21108742;28;20283;-72
2022/07/10 16:13:17;;;;;;;0.60;0.30;;;;;;;;;;21087767;28;20209;-71
2022/07/10 16:23:19;;;;;;;0.25;0.20;;;;;;;;;;21092474;28;20219;-72
2022/07/10 16:33:22;;;;;;;1.02;0.20;;;23.40;93.00;;;;;;21097907;28;20575;-72
2022/07/10 16:43:30;;;;;;;2.95;0.30;;;;;;;;;;21116734;28;20223;-71
2022/07/10 16:53:32;;;;;;;0.35;0.20;;;;;;;;;;21104976;28;20229;-73
2022/07/10 17:03:34;;;;;;;0.47;0.30;;;;;;;;;;21107195;28;20207;-71
2022/07/10 17:13:36;;;;;;;0.20;0.20;;;;;;;;;;21099791;28;20214;-71
2022/07/10 17:23:38;;;;;;;0.20;0.20;;;;;;;;;;21100142;28;20221;-71
2022/07/10 17:33:41;;;;;;;0.20;0.20;;;;;;;;;;21052108;28;20215;-75
2022/07/10 17:43:43;;;;;;;0.20;0.20;;;;;;;;;;21035875;28;20253;-73
2022/07/10 17:53:45;;;;;;;0.45;0.30;;;;;;;;;;21042588;28;20675;-71
2022/07/10 18:03:48;;;;;;;0.98;0.50;;;;;;;;;;21069537;28;20285;-73
2022/07/10 18:13:51;;;;;;;1.27;0.70;;;;;;;;;;21092277;28;20219;-72
2022/07/10 18:23:59;;;;;;;0.80;0.60;;;;;;;;;;21061535;28;20595;-71
2022/07/10 18:44:22;;;;;;;0.77;0.60;;;;;;;;;;21083510;28;20252;-73
2022/07/10 18:54:24;;;;;;;0.57;0.40;;;;;;;;;;21066044;28;20221;-72
2022/07/10 19:04:45;;;;;;;0.45;0.40;;;;;;;;;;21078708;28;20256;-72
2022/07/10 19:14:46;;;;;;;0.93;0.47;;;;;;;;;;21067727;28;20204;-72
2022/07/10 19:24:48;;;;;;;0.77;0.60;;;;;;;;;;21065547;28;20223;-72
2022/07/10 19:34:53;;;;;;;0.30;0.30;;;;;;;;;;21046825;28;20214;-72
2022/07/10 19:44:55;;;;;;;0.68;0.50;;;;;;;;;;21081855;28;20209;-72
2022/07/10 19:54:57;;;;;;;0.95;0.50;;;;;;;;;;21041999;28;20261;-73
2022/07/10 20:05:02;;;;;;;1.00;0.50;;;;;;;;;;21043081;28;20266;-73
2022/07/10 20:15:05;;;;;;;1.63;0.70;;;;;;;;;;21062863;28;20244;-72
2022/07/10 20:25:07;;;;;;;1.60;0.50;;;;;;;;;;21074197;28;20708;-72
2022/07/10 20:35:09;;;;;;;0.50;0.50;;;;;;;;;;21105832;28;20257;-73
2022/07/10 20:45:14;;;;;;;1.30;0.80;;;22.10;99.90;;;;;;21147230;28;20221;-73
2022/07/10 20:55:17;;;;;;;1.08;0.60;;;;;;;;;;21129825;28;20230;-73
2022/07/10 21:05:20;;;;;;;0.80;0.50;;;;;;;;;;21131178;28;20215;-73
2022/07/10 21:15:22;;;;;;;1.00;0.60;;;;;;;;;;21146074;28;20357;-73
2022/07/10 21:25:24;;;;;;;1.00;0.70;;;;;;;;;;21151011;28;20228;-72
2022/07/10 21:35:26;;;;;;;1.40;0.60;;;;;;;;;;21121255;28;20206;-73
2022/07/10 21:45:28;;;;;;;1.10;0.57;;;;;;;;;;21138265;28;20628;-72
2022/07/10 21:55:30;;;;;;;1.88;0.50;;;20.30;99.90;;;;;;21147808;28;20210;-72
2022/07/10 22:05:34;;;;;;;0.75;0.50;;;;;;;;;;21128835;28;20236;-73
2022/07/10 22:15:36;;;;;;;0.70;0.60;;;;;;;;;;21115239;28;20209;-73
2022/07/10 22:25:38;;;;;;;2.40;0.90;;;;;;;;;;21123856;28;20630;-73
2022/07/10 22:35:40;;;;;;;1.20;0.60;;;;;;;;;;21143735;28;20212;-73
2022/07/10 22:45:42;;;;;;;1.38;0.60;;;;;;;;;;21131341;28;20245;-73
2022/07/10 22:55:44;;;;;;;1.20;0.80;;;;;;;;;;21162765;28;20217;-73
2022/07/10 23:05:46;;;;;;;1.20;0.40;;;;;;;;;;21176722;28;20303;-73
2022/07/10 23:15:48;;;;;;;0.98;0.60;;;;;;;;;;21152578;28;20231;-72
2022/07/10 23:25:50;;;;;;;1.90;0.60;;;;;;;;;;21133514;28;20277;-72
2022/07/10 23:35:52;;;;;;;0.70;0.53;;;;;;;;;;21142682;28;20209;-72
2022/07/10 23:45:54;;;;;;;0.40;0.40;;;;;;;;;;21121141;28;20228;-73
2022/07/10 23:55:56;;;;;;;1.43;0.60;;;;;;;;;;21154505;28;20630;-73
